Terminal Aerodrome Forecast
Issued by NWS Twin Cities, MN

Home | Current Version | Previous Version | Text Only | Print | Product List | Glossary On
Versions: 1 2 3 4 5 6 7 8 9 10 11 12 13 14 15 16 17 18 19 20 21 22 23 24 25 26 27 28 29 30
000
FTUS43 KMPX 200241 AAA
TAFMSP
TAF AMD
KMSP 200241Z 2003/2106 17005KT P6SM FEW250
     FM201100 17005KT P6SM BKN070
     FM201700 24007KT P6SM BKN070 PROB30 2017/2021 -SHRA
     FM202100 31007KT P6SM SCT100=

USA.gov is the U.S. government's official web portal to all federal, state and local government web resources and services.